Time;durP1;ratioP1;P1;durP2;ratioP2;P2;SDS_P1;SDS_P2;PMS_P1;PMS_P2;Temp;Humidity;BMP_temperature;BMP_pressure;BME280_temperature;BME280_humidity;BME280_pressure;Samples;Min_cycle;Max_cycle;Signal;HPM_P1;HPM_P2
2023/07/15 00:00:14;;;;;;;18.10;6.40;;;;;;;22.73;nan;98937.38;5033605;28;20854;-80
2023/07/15 00:02:43;;;;;;;16.73;7.27;;;;;;;22.69;nan;98929.97;5033405;28;20493;-80
2023/07/15 00:05:37;;;;;;;13.82;5.57;;;;;;;22.69;nan;98935.31;5031756;28;20463;-80
2023/07/15 00:08:03;;;;;;;14.10;6.03;;;;;;;22.66;nan;98931.16;5008635;28;20848;-80
2023/07/15 00:10:29;;;;;;;19.40;7.00;;;;;;;22.68;nan;98931.81;5033843;28;20481;-80
2023/07/15 00:12:56;;;;;;;22.87;7.30;;;;;;;22.65;nan;98924.13;5031781;28;20467;-80
2023/07/15 00:15:21;;;;;;;12.27;6.33;;;;;;;22.64;nan;98930.53;5033818;28;20464;-79
2023/07/15 00:17:47;;;;;;;13.10;6.03;;;;;;;22.60;nan;98923.91;5014026;28;20525;-80
2023/07/15 00:20:14;;;;;;;14.47;5.03;;;;;;;22.59;nan;98930.28;5034207;28;20366;-80
2023/07/15 00:22:43;;;;;;;11.30;5.30;;;;;;;22.57;nan;98929.63;5034085;28;20265;-80
2023/07/15 00:25:15;;;;;;;12.03;5.03;;;;;;;22.52;nan;98924.00;5033783;28;20454;-80
2023/07/15 00:27:44;;;;;;;7.70;4.10;;;;;;;22.49;nan;98932.44;5035736;28;20957;-80
2023/07/15 00:30:13;;;;;;;4.93;4.50;;;;;;;22.45;nan;98923.97;5004166;28;20449;-80
2023/07/15 00:32:40;;;;;;;6.63;4.93;;;;;;;22.38;nan;98920.38;5035335;28;20642;-81
2023/07/15 00:35:28;;;;;;;5.97;3.63;;;;;;;22.33;nan;98921.97;5038355;28;20448;-80
2023/07/15 00:37:58;;;;;;;15.50;5.00;;;;;;;22.32;nan;98929.19;5039116;28;20226;-80
2023/07/15 00:40:25;;;;;;;7.10;4.20;;;;;;;22.28;nan;98925.25;5018928;28;20483;-80
2023/07/15 00:42:53;;;;;;;7.80;4.43;;;;;;;22.26;nan;98928.09;5038413;28;20822;-80
2023/07/15 00:45:18;;;;;;;8.10;4.10;;;;;;;22.21;nan;98935.84;5022123;28;20525;-81
2023/07/15 00:47:54;;;;;;;14.50;5.30;;;;;;;22.13;nan;98932.44;5038542;28;20451;-80
2023/07/15 00:50:19;;;;;;;6.87;4.80;;;;;;;22.01;nan;98930.25;5022995;28;20210;-80
2023/07/15 00:52:45;;;;;;;9.30;4.03;;;;;;;21.94;nan;98924.00;5022821;28;20569;-81
2023/07/15 00:55:11;;;;;;;4.30;3.90;;;;;;;21.90;nan;98922.72;5024067;28;20220;-81
2023/07/15 00:57:37;;;;;;;7.00;4.60;;;;;;;21.86;nan;98926.78;5038699;28;20582;-81
2023/07/15 01:00:04;;;;;;;6.67;4.13;;;;;;;21.78;nan;98930.38;5033006;28;20212;-81
2023/07/15 01:02:30;;;;;;;11.13;4.77;;;;;;;21.67;nan;98925.50;5038315;28;20717;-81
2023/07/15 01:04:55;;;;;;;10.27;6.25;;;;;;;21.54;nan;98923.47;5035995;28;20385;-81
2023/07/15 01:07:21;;;;;;;7.00;3.90;;;;;;;21.48;nan;98929.56;5037937;28;20213;-81
2023/07/15 01:09:47;;;;;;;6.13;4.40;;;;;;;21.41;nan;98931.31;5036098;28;20219;-81
2023/07/15 01:12:13;;;;;;;4.43;4.00;;;;;;;21.34;nan;98931.19;5037135;28;20207;-81
2023/07/15 01:14:38;;;;;;;5.43;3.73;;;;;;;21.32;nan;98929.72;5036115;28;20456;-81
2023/07/15 01:17:05;;;;;;;14.70;4.20;;;;;;;21.28;nan;98920.41;5036273;28;20224;-79
2023/07/15 01:19:31;;;;;;;8.97;4.70;;;;;;;21.24;nan;98924.47;5032661;28;20196;-80
2023/07/15 01:21:57;;;;;;;5.97;4.20;;;;;;;21.24;nan;98927.97;5011778;28;20446;-80
2023/07/15 01:24:25;;;;;;;7.27;4.13;;;;;;;21.25;nan;98926.09;5032798;28;20201;-80
2023/07/15 01:26:55;;;;;;;4.73;4.23;;;;;;;21.23;nan;98928.97;5034316;28;20479;-80
2023/07/15 01:29:20;;;;;;;6.53;3.40;;;;;;;21.20;nan;98918.66;5032815;28;20872;-80
2023/07/15 01:31:46;;;;;;;7.10;4.03;;;;;;;21.21;nan;98914.97;5034816;28;20443;-80
2023/07/15 01:34:13;;;;;;;5.38;4.35;;;;;;;21.26;nan;98919.78;5030946;28;20440;-80
2023/07/15 01:36:39;;;;;;;4.13;3.50;;;;;;;21.26;nan;98915.25;5031990;28;20497;-80
2023/07/15 01:39:07;;;;;;;7.10;4.43;;;;;;;21.27;nan;98914.22;5015708;28;20557;-80
2023/07/15 01:41:34;;;;;;;8.23;4.40;;;;;;;21.31;nan;98920.88;5029884;28;20631;-80
2023/07/15 01:43:59;;;;;;;6.30;4.37;;;;;;;21.31;nan;98920.06;5015785;28;20479;-80
2023/07/15 01:46:27;;;;;;;5.10;4.60;;;;;;;21.30;nan;98913.03;5031347;28;20484;-80
2023/07/15 01:48:52;;;;;;;4.50;3.83;;;;;;;21.29;nan;98914.88;5033188;28;20463;-80
2023/07/15 01:51:18;;;;;;;8.07;4.60;;;;;;;21.29;nan;98906.88;5031213;28;20223;-80
2023/07/15 01:53:43;;;;;;;7.83;4.30;;;;;;;21.32;nan;98911.84;5033525;28;20496;-80
2023/07/15 01:56:08;;;;;;;5.50;3.83;;;;;;;21.36;nan;98913.16;5031828;28;20834;-80
2023/07/15 01:58:34;;;;;;;8.43;4.80;;;;;;;21.41;nan;98907.25;5015530;28;20235;-80
2023/07/15 02:00:59;;;;;;;4.53;4.13;;;;;;;21.43;nan;98911.41;5021956;28;20834;-80
2023/07/15 02:03:25;;;;;;;6.20;3.67;;;;;;;21.47;nan;98911.88;5016284;28;20220;-80
2023/07/15 02:05:51;;;;;;;6.47;4.20;;;;;;;21.47;nan;98905.69;5014610;28;20213;-80
2023/07/15 02:08:16;;;;;;;9.80;4.07;;;;;;;21.38;nan;98908.47;5030790;28;20229;-80
2023/07/15 02:10:42;;;;;;;4.00;3.60;;;;;;;21.33;nan;98900.16;5036136;28;20441;-80
2023/07/15 02:13:09;;;;;;;11.33;3.90;;;;;;;21.21;nan;98901.63;5036152;28;20618;-80
2023/07/15 02:15:34;;;;;;;5.83;4.27;;;;;;;21.10;nan;98899.41;5016981;28;20241;-81
2023/07/15 02:17:59;;;;;;;3.63;3.33;;;;;;;21.03;nan;98907.28;5025608;28;20506;-80
2023/07/15 02:20:25;;;;;;;3.77;3.00;;;;;;;20.97;nan;98902.69;5019724;28;20290;-80
2023/07/15 02:22:52;;;;;;;6.80;3.77;;;;;;;20.96;nan;98904.53;5037381;28;20225;-80
2023/07/15 02:25:18;;;;;;;4.53;3.90;;;;;;;20.94;nan;98895.03;5036050;28;20516;-80
2023/07/15 02:27:43;;;;;;;3.90;3.33;;;;;;;20.91;nan;98900.75;5035588;28;20967;-80
2023/07/15 02:30:09;;;;;;;4.63;3.73;;;;;;;20.91;nan;98895.41;5017171;28;20537;-80
2023/07/15 02:32:35;;;;;;;5.23;3.30;;;;;;;20.89;nan;98894.75;5034579;28;20196;-80
2023/07/15 02:35:02;;;;;;;5.80;4.60;;;;;;;20.86;nan;98887.94;5016567;28;20979;-80
2023/07/15 02:37:27;;;;;;;4.40;2.90;;;;;;;20.77;nan;98897.03;5036712;28;20931;-81
2023/07/15 02:39:52;;;;;;;4.87;3.57;;;;;;;20.74;nan;98889.41;5020271;28;20444;-81
2023/07/15 02:42:18;;;;;;;3.80;3.00;;;;;;;20.73;nan;98885.06;5037781;28;20209;-80
2023/07/15 02:44:44;;;;;;;6.50;4.30;;;;;;;20.66;nan;98876.13;5018924;28;20269;-80
2023/07/15 02:47:09;;;;;;;6.00;3.40;;;;;;;20.53;nan;98860.69;5019924;28;20933;-80
2023/07/15 02:49:35;;;;;;;9.00;4.10;;;;;;;20.50;nan;98861.06;5036249;28;20224;-80
2023/07/15 02:52:01;;;;;;;6.03;4.30;;;;;;;20.42;nan;98864.63;5039399;28;20330;-80
2023/07/15 02:54:26;;;;;;;11.13;5.10;;;;;;;20.38;nan;98857.16;5020013;28;20304;-80
2023/07/15 02:56:53;;;;;;;8.20;4.17;;;;;;;20.36;nan;98860.00;5040007;28;20216;-80
2023/07/15 02:59:19;;;;;;;6.87;3.93;;;;;;;20.34;nan;98846.84;5019607;28;20587;-80
2023/07/15 03:01:46;;;;;;;9.90;5.37;;;;;;;20.27;nan;98853.88;5019232;28;20454;-80
2023/07/15 03:04:13;;;;;;;8.10;4.67;;;;;;;20.26;nan;98843.41;5033486;28;20497;-80
2023/07/15 03:06:39;;;;;;;6.83;3.87;;;;;;;20.29;nan;98840.38;5036799;28;20474;-80
2023/07/15 03:09:05;;;;;;;5.20;3.20;;;;;;;20.34;nan;98840.69;5036442;28;20216;-80
2023/07/15 03:11:31;;;;;;;6.00;3.80;;;;;;;20.35;nan;98837.00;5016674;28;20425;-81
2023/07/15 03:13:57;;;;;;;7.47;4.07;;;;;;;20.31;nan;98838.38;5034778;28;20211;-80
2023/07/15 03:16:22;;;;;;;5.70;3.70;;;;;;;20.30;nan;98839.38;5038851;28;20436;-80
2023/07/15 03:18:48;;;;;;;10.10;3.83;;;;;;;20.29;nan;98829.72;5035582;28;20862;-80
2023/07/15 03:21:15;;;;;;;3.90;3.30;;;;;;;20.30;nan;98828.69;5020213;28;20234;-81
2023/07/15 03:23:40;;;;;;;4.70;3.30;;;;;;;20.35;nan;98826.31;5036388;28;20570;-80
2023/07/15 03:26:05;;;;;;;5.80;3.90;;;;;;;20.35;nan;98837.00;5036437;28;20779;-80
2023/07/15 03:28:31;;;;;;;5.83;3.37;;;;;;;20.33;nan;98837.19;5035571;28;20239;-80
2023/07/15 03:30:56;;;;;;;4.10;3.17;;;;;;;20.28;nan;98836.88;5035388;28;20580;-80
2023/07/15 03:33:22;;;;;;;4.73;3.90;;;;;;;20.28;nan;98841.38;5034923;28;20717;-80
2023/07/15 03:35:47;;;;;;;4.57;3.80;;;;;;;20.25;nan;98837.25;5036049;28;20442;-80
2023/07/15 03:38:13;;;;;;;4.03;3.63;;;;;;;20.19;nan;98853.94;5037231;28;20576;-80
2023/07/15 03:40:38;;;;;;;4.20;3.80;;;;;;;20.13;nan;98851.16;5037504;28;20245;-80
2023/07/15 03:43:03;;;;;;;3.50;3.20;;;;;;;20.09;nan;98856.00;5036821;28;20217;-80
2023/07/15 03:45:30;;;;;;;3.97;3.50;;;;;;;20.07;nan;98850.03;5036215;28;20254;-80
2023/07/15 03:47:55;;;;;;;4.60;3.00;;;;;;;20.05;nan;98854.72;5039264;28;20305;-80
2023/07/15 03:50:21;;;;;;;4.03;3.10;;;;;;;20.06;nan;98851.03;5035902;28;20446;-80
2023/07/15 03:52:46;;;;;;;4.03;3.53;;;;;;;20.10;nan;98860.34;5037353;28;20219;-80
2023/07/15 03:55:12;;;;;;;8.07;3.97;;;;;;;20.16;nan;98858.81;5036785;28;20206;-79
2023/07/15 03:57:37;;;;;;;4.63;3.53;;;;;;;20.18;nan;98856.81;5033635;28;20223;-80
2023/07/15 04:00:07;;;;;;;4.60;3.70;;;;;;;20.21;nan;98856.44;5038188;28;20229;-80
2023/07/15 04:02:39;;;;;;;3.27;3.00;;;;;;;20.22;nan;98850.91;5035787;28;20329;-80
2023/07/15 04:05:04;;;;;;;4.33;3.93;;;;;;;20.23;nan;98836.59;5035441;28;20448;-80
2023/07/15 04:07:30;;;;;;;5.23;4.00;;;;;;;20.19;nan;98850.44;5038285;28;20806;-80
2023/07/15 04:09:55;;;;;;;5.63;3.47;;;;;;;20.18;nan;98838.13;5037517;28;20631;-81
2023/07/15 04:12:21;;;;;;;4.07;3.67;;;;;;;20.20;nan;98849.44;5037100;28;20211;-80
2023/07/15 04:14:46;;;;;;;4.20;3.90;;;;;;;20.19;nan;98845.13;5035024;28;20216;-80
2023/07/15 04:17:12;;;;;;;5.43;4.00;;;;;;;20.18;nan;98849.63;5037583;28;20222;-81
2023/07/15 04:19:38;;;;;;;5.10;4.07;;;;;;;20.23;nan;98849.09;5037363;28;20218;-80
2023/07/15 04:22:04;;;;;;;4.07;3.53;;;;;;;20.30;nan;98860.69;5037444;28;20220;-80
2023/07/15 04:24:29;;;;;;;5.43;3.90;;;;;;;20.39;nan;98851.66;5038483;28;20505;-80
2023/07/15 04:26:55;;;;;;;3.97;3.57;;;;;;;20.48;nan;98853.22;5037204;28;20313;-80
2023/07/15 04:29:20;;;;;;;4.23;3.80;;;;;;;20.57;nan;98842.50;5036027;28;20551;-80
2023/07/15 04:31:47;;;;;;;9.67;4.23;;;;;;;20.63;nan;98834.63;5036208;28;20707;-81
2023/07/15 04:34:13;;;;;;;4.87;3.40;;;;;;;20.68;nan;98839.41;5034026;28;20209;-80
2023/07/15 04:36:38;;;;;;;5.97;4.20;;;;;;;20.74;nan;98833.34;5034337;28;20829;-80
2023/07/15 04:39:04;;;;;;;9.50;3.63;;;;;;;20.80;nan;98826.47;5039585;28;20784;-81
2023/07/15 04:41:29;;;;;;;5.93;4.50;;;;;;;20.84;nan;98825.06;5039823;28;20587;-80
2023/07/15 04:43:55;;;;;;;5.40;3.67;;;;;;;20.92;nan;98825.81;5040305;28;20242;-80
2023/07/15 04:46:20;;;;;;;4.60;3.83;;;;;;;21.01;nan;98823.91;5038337;28;20294;-81
2023/07/15 04:48:46;;;;;;;3.37;3.07;;;;;;;21.15;nan;98828.41;5040741;28;20224;-80
2023/07/15 04:51:11;;;;;;;5.50;3.83;;;;;;;21.29;nan;98818.72;5038306;28;20214;-80
2023/07/15 04:53:42;;;;;;;5.83;3.20;;;;;;;21.49;nan;98824.34;5042538;28;20469;-81
2023/07/15 04:56:08;;;;;;;4.90;3.17;;;;;;;21.71;nan;98817.22;5041425;28;22593;-80
2023/07/15 04:58:33;;;;;;;4.63;3.07;;;;;;;22.03;nan;98825.75;5040000;28;20494;-80
2023/07/15 05:00:59;;;;;;;3.57;3.13;;;;;;;22.54;nan;98825.63;5039920;28;20239;-80
2023/07/15 05:03:24;;;;;;;5.03;3.00;;;;;;;23.10;nan;98816.78;5041988;28;20233;-81
2023/07/15 05:05:50;;;;;;;4.97;3.53;;;;;;;23.73;nan;98819.34;5022159;28;20466;-80
2023/07/15 05:08:18;;;;;;;3.50;3.20;;;;;;;24.37;nan;98813.47;5037795;28;20227;-80
2023/07/15 05:10:44;;;;;;;3.27;2.97;;;;;;;24.97;nan;98797.31;5037450;28;20997;-80
2023/07/15 05:13:10;;;;;;;4.67;3.00;;;;;;;25.53;nan;98803.97;5039670;28;20483;-80
2023/07/15 05:15:36;;;;;;;18.23;3.50;;;;;;;26.02;nan;98799.78;5038392;28;20508;-80
2023/07/15 05:18:04;;;;;;;3.80;3.50;;;;;;;26.45;nan;98788.28;5036143;28;20402;-80
2023/07/15 05:20:31;;;;;;;3.63;3.33;;;;;;;26.81;nan;98787.56;5035677;28;20603;-80
2023/07/15 05:22:57;;;;;;;2.60;2.50;;;;;;;27.11;nan;98782.28;5037992;28;20514;-79
2023/07/15 05:25:23;;;;;;;3.67;3.30;;;;;;;27.37;nan;98774.94;5038985;28;20522;-80
2023/07/15 05:27:55;;;;;;;3.70;3.40;;;;;;;27.71;nan;98780.72;5042382;28;20305;-81
2023/07/15 05:30:21;;;;;;;3.80;2.43;;;;;;;27.96;nan;98778.72;5038877;28;20524;-81
2023/07/15 05:32:47;;;;;;;4.07;3.73;;;;;;;28.23;nan;98772.91;5040220;28;20461;-80
2023/07/15 05:35:12;;;;;;;3.47;3.17;;;;;;;28.50;nan;98759.81;5037114;28;20556;-80
2023/07/15 05:37:45;;;;;;;4.50;2.90;;;;;;;28.73;nan;98763.53;5034823;28;20987;-81
2023/07/15 05:40:10;;;;;;;2.70;2.50;;;;;;;29.00;nan;98759.31;5024661;23;20684;-81
2023/07/15 05:42:43;;;;;;;3.37;2.67;;;;;;;29.38;nan;98751.69;4983151;28;21001;-78
2023/07/15 05:45:09;;;;;;;3.87;2.97;;;;;;;29.73;nan;98740.72;4995609;28;20211;-78
2023/07/15 05:47:34;;;;;;;4.00;2.80;;;;;;;30.07;nan;98740.78;4999094;28;20709;-78
2023/07/15 05:50:01;;;;;;;3.27;2.70;;;;;;;30.35;nan;98738.03;4997768;28;20578;-82
2023/07/15 05:52:30;;;;;;;2.70;2.20;;;;;;;30.60;nan;98736.75;4997105;28;20199;-81
2023/07/15 05:54:55;;;;;;;2.80;2.50;;;;;;;30.92;nan;98731.53;4993660;28;20559;-80
2023/07/15 05:57:21;;;;;;;4.73;2.90;;;;;;;31.28;nan;98738.19;4999075;28;20447;-81
2023/07/15 05:59:46;;;;;;;3.17;2.43;;;;;;;31.61;nan;98738.28;4998715;28;20529;-82
2023/07/15 06:02:12;;;;;;;4.13;3.23;;;;;;;31.94;nan;98732.66;4995241;28;20199;-78
2023/07/15 06:04:40;;;;;;;4.60;2.80;;;;;;;32.17;nan;98727.97;4995613;28;20205;-80
2023/07/15 06:07:05;;;;;;;5.70;3.53;;;;;;;32.37;nan;98732.72;4996733;28;20207;-81
2023/07/15 06:09:33;;;;;;;3.10;2.57;;;;;;;32.56;nan;98725.78;4995518;28;20555;-81
2023/07/15 06:12:02;;;;;;;3.50;2.70;;;;;;;32.93;nan;98722.19;4995993;28;20653;-78
2023/07/15 06:14:28;;;;;;;2.90;2.53;;;;;;;33.32;nan;98721.81;4995192;28;20808;-78
2023/07/15 06:16:53;;;;;;;4.60;2.77;;;;;;;33.55;nan;98728.72;4995320;28;20480;-81
2023/07/15 06:19:18;;;;;;;5.20;2.53;;;;;;;33.80;nan;98730.63;4976485;28;20215;-79
2023/07/15 06:21:44;;;;;;;5.30;3.10;;;;;;;34.04;nan;98725.47;4993769;28;20199;-79
2023/07/15 06:24:09;;;;;;;3.30;2.43;;;;;;;34.21;nan;98722.50;4988887;28;20214;-81
2023/07/15 06:26:35;;;;;;;3.43;2.70;;;;;;;34.47;nan;98736.91;4996647;28;20205;-79
2023/07/15 06:29:01;;;;;;;3.60;2.37;;;;;;;34.79;nan;98719.41;4998012;28;20203;-80
2023/07/15 06:31:27;;;;;;;5.07;3.30;;;;;;;34.95;nan;98723.72;4991382;28;20346;-82
2023/07/15 06:33:53;;;;;;;3.37;2.10;;;;;;;35.08;nan;98724.22;4997393;28;20469;-81
2023/07/15 06:36:19;;;;;;;3.93;2.10;;;;;;;35.32;nan;98719.72;4998675;28;20206;-79
2023/07/15 06:38:44;;;;;;;5.33;2.63;;;;;;;35.53;nan;98716.88;4998392;28;20229;-83
2023/07/15 06:41:10;;;;;;;6.80;3.30;;;;;;;35.66;nan;98725.28;4998292;28;20462;-78
2023/07/15 06:43:35;;;;;;;7.90;3.30;;;;;;;35.75;nan;98721.94;4997642;28;20218;-79
2023/07/15 06:46:01;;;;;;;6.87;3.37;;;;;;;35.96;nan;98734.38;4997440;28;20191;-82
2023/07/15 06:48:26;;;;;;;4.37;3.40;;;;;;;36.19;nan;98734.78;4998845;28;20681;-79
2023/07/15 06:50:51;;;;;;;3.47;2.47;;;;;;;36.34;nan;98735.41;4993038;28;20194;-81
2023/07/15 06:53:17;;;;;;;2.87;2.57;;;;;;;36.49;nan;98729.00;4996625;28;20590;-81
2023/07/15 06:55:42;;;;;;;4.23;2.43;;;;;;;36.48;nan;98730.06;4991273;28;20207;-81
2023/07/15 06:58:08;;;;;;;3.43;2.80;;;;;;;36.54;nan;98739.09;5000217;28;20256;-79
2023/07/15 07:00:33;;;;;;;3.37;2.70;;;;;;;36.70;nan;98735.09;4975712;28;20814;-81
2023/07/15 07:02:59;;;;;;;5.00;2.70;;;;;;;37.04;nan;98727.88;4999008;28;20215;-81
2023/07/15 07:05:26;;;;;;;3.37;2.20;;;;;;;37.02;nan;98719.94;4997450;28;20202;-79
2023/07/15 07:07:52;;;;;;;2.90;2.60;;;;;;;37.22;nan;98726.28;5000446;28;20481;-82
2023/07/15 07:10:17;;;;;;;3.20;2.60;;;;;;;37.46;nan;98723.47;4996160;28;20950;-81
2023/07/15 07:12:43;;;;;;;2.83;2.63;;;;;;;37.71;nan;98722.31;4999321;28;20452;-80
2023/07/15 07:15:09;;;;;;;4.20;2.63;;;;;;;37.81;nan;98711.19;4998316;28;20959;-83
2023/07/15 07:17:34;;;;;;;3.73;2.60;;;;;;;37.72;nan;98719.25;5001907;28;20647;-79
2023/07/15 07:20:00;;;;;;;4.27;2.27;;;;;;;37.58;nan;98715.66;4999392;28;20225;-81
2023/07/15 07:22:26;;;;;;;2.73;2.53;;;;;;;37.71;nan;98705.88;4998234;28;20695;-83
2023/07/15 07:24:54;;;;;;;3.40;2.70;;;;;;;37.93;nan;98708.78;4999741;28;20245;-82
2023/07/15 07:27:22;;;;;;;3.93;3.20;;;;;;;38.20;nan;98708.06;5001084;28;20211;-81
2023/07/15 07:29:48;;;;;;;3.20;2.37;;;;;;;38.37;nan;98712.97;5001698;28;20504;-80
2023/07/15 07:32:16;;;;;;;3.47;2.87;;;;;;;38.47;nan;98712.81;5000312;28;20541;-80
2023/07/15 07:34:41;;;;;;;3.70;2.80;;;;;;;38.51;nan;98722.09;5001579;28;20254;-80
2023/07/15 07:37:08;;;;;;;3.00;2.60;;;;;;;38.67;nan;98730.84;5004608;28;20448;-80
2023/07/15 07:39:36;;;;;;;2.80;2.50;;;;;;;38.56;nan;98729.38;5004286;28;20259;-82
2023/07/15 07:42:08;;;;;;;2.70;2.50;;;;;;;38.25;nan;98731.88;5000821;28;20803;-81
2023/07/15 07:44:34;;;;;;;4.90;2.20;;;;;;;38.15;nan;98732.03;5000939;28;20639;-81
2023/07/15 07:47:00;;;;;;;2.10;2.00;;;;;;;38.37;nan;98728.63;5000623;28;20795;-80
2023/07/15 07:49:25;;;;;;;2.30;2.20;;;;;;;38.52;nan;98733.88;4999949;28;20349;-79
2023/07/15 07:51:53;;;;;;;2.57;2.40;;;;;;;38.53;nan;98742.91;5002842;28;20764;-83
2023/07/15 07:54:21;;;;;;;2.70;2.43;;;;;;;38.21;nan;98736.31;5002358;28;20214;-81
2023/07/15 07:56:46;;;;;;;3.17;2.87;;;;;;;37.68;nan;98734.69;5000117;28;20479;-80
2023/07/15 07:59:12;;;;;;;3.50;3.20;;;;;;;37.38;nan;98742.22;5000136;28;20923;-82
2023/07/15 08:01:37;;;;;;;3.27;2.93;;;;;;;37.37;nan;98728.81;5000427;28;20216;-80
2023/07/15 08:04:03;;;;;;;2.70;2.47;;;;;;;37.63;nan;98724.59;5002901;28;20219;-80
2023/07/15 08:06:28;;;;;;;3.17;2.97;;;;;;;37.89;nan;98723.38;4999726;28;20196;-83
2023/07/15 08:08:54;;;;;;;2.80;2.60;;;;;;;38.13;nan;98723.28;5000812;28;20220;-80
2023/07/15 08:11:20;;;;;;;3.00;2.80;;;;;;;38.19;nan;98722.13;4981408;28;20204;-81
2023/07/15 08:13:45;;;;;;;4.00;3.40;;;;;;;38.11;nan;98722.81;5002540;28;20775;-83
2023/07/15 08:16:30;;;;;;;2.90;2.70;;;;;;;37.94;nan;98718.63;5007081;28;20208;-84
2023/07/15 08:18:56;;;;;;;2.90;2.70;;;;;;;37.81;nan;98719.41;5015281;28;20216;-82
2023/07/15 08:21:22;;;;;;;3.90;2.70;;;;;;;37.92;nan;98707.19;5015395;28;20694;-82
2023/07/15 08:23:51;;;;;;;4.90;2.40;;;;;;;38.05;nan;98709.19;5014439;28;20513;-82
2023/07/15 08:26:18;;;;;;;2.73;2.40;;;;;;;38.16;nan;98712.56;5014176;28;20310;-81
2023/07/15 08:28:44;;;;;;;2.90;2.67;;;;;;;38.19;nan;98716.63;5017619;28;20498;-81
2023/07/15 08:31:09;;;;;;;3.00;2.80;;;;;;;38.08;nan;98708.56;5012421;28;20761;-83
2023/07/15 08:33:35;;;;;;;2.50;2.00;;;;;;;38.05;nan;98711.06;5014355;28;20255;-81
2023/07/15 08:36:00;;;;;;;6.53;2.80;;;;;;;37.99;nan;98715.03;5010877;28;20435;-81
2023/07/15 08:38:32;;;;;;;4.83;3.20;;;;;;;37.86;nan;98724.78;5009902;28;20352;-81
2023/07/15 08:41:02;;;;;;;3.23;2.27;;;;;;;37.72;nan;98735.72;5018734;28;20417;-82
2023/07/15 08:43:31;;;;;;;3.73;3.23;;;;;;;37.60;nan;98738.91;5017064;28;20493;-82
2023/07/15 08:46:11;;;;;;;2.67;2.47;;;;;;;37.57;nan;98734.03;5014142;28;20460;-82
2023/07/15 08:48:36;;;;;;;3.63;2.73;;;;;;;37.56;nan;98739.78;5013333;28;21116;-83
2023/07/15 08:51:05;;;;;;;2.60;2.40;;;;;;;37.29;nan;98737.69;5014740;28;20477;-83
2023/07/15 08:53:30;;;;;;;2.43;2.07;;;;;;;37.07;nan;98736.31;5017506;28;20847;-82
2023/07/15 08:55:57;;;;;;;2.73;2.50;;;;;;;36.96;nan;98743.00;5021942;28;20465;-82
2023/07/15 08:58:23;;;;;;;3.70;2.47;;;;;;;36.88;nan;98760.06;5015860;28;20465;-83
2023/07/15 09:00:51;;;;;;;2.73;2.20;;;;;;;36.91;nan;98768.50;5020804;28;20472;-82
2023/07/15 09:03:17;;;;;;;39.17;9.10;;;;;;;36.75;nan;98773.34;5013978;28;20842;-76
2023/07/15 09:05:43;;;;;;;19.50;4.43;;;;;;;36.64;nan;98771.81;5014936;28;20964;-82
2023/07/15 09:08:11;;;;;;;3.00;2.17;;;;;;;36.61;nan;98775.13;5012461;28;20235;-82
2023/07/15 09:10:53;;;;;;;4.07;2.60;;;;;;;36.58;nan;98778.44;5009836;28;20466;-83
2023/07/15 09:13:27;;;;;;;3.70;2.50;;;;;;;36.66;nan;98790.69;5013848;28;20482;-82
2023/07/15 09:15:58;;;;;;;4.90;2.67;;;;;;;36.75;nan;98800.72;4993430;28;20486;-82
2023/07/15 09:18:24;;;;;;;3.33;2.80;;;;;;;36.87;nan;98804.97;5014516;28;20476;-82
2023/07/15 09:20:51;;;;;;;3.47;3.17;;;;;;;36.95;nan;98805.16;5018759;28;20591;-82
2023/07/15 09:23:18;;;;;;;2.70;2.50;;;;;;;36.90;nan;98812.59;5016965;28;20728;-82
2023/07/15 09:25:53;;;;;;;2.60;2.40;;;;;;;36.82;nan;98811.31;5017308;28;20453;-81
2023/07/15 09:28:22;;;;;;;3.20;2.47;;;;;;;36.76;nan;98815.22;5014392;28;20596;-83
2023/07/15 09:30:48;;;;;;;2.70;2.37;;;;;;;36.72;nan;98800.47;5017597;28;20475;-82
2023/07/15 09:33:33;;;;;;;2.40;2.20;;;;;;;36.77;nan;98812.16;5002203;28;20490;-82
2023/07/15 09:36:02;;;;;;;2.83;2.60;;;;;;;36.77;nan;98808.63;5018766;28;20193;-82
2023/07/15 09:38:33;;;;;;;2.77;2.57;;;;;;;36.76;nan;98804.25;5018766;28;20810;-80
2023/07/15 09:40:59;;;;;;;4.00;2.97;;;;;;;36.70;nan;98800.78;5012423;28;20978;-81
2023/07/15 09:43:50;;;;;;;2.60;2.27;;;;;;;36.83;nan;98806.66;5015292;28;20461;-82
2023/07/15 09:46:17;;;;;;;3.53;2.67;;;;;;;36.91;nan;98809.56;4999248;28;20476;-81
2023/07/15 09:48:48;;;;;;;3.10;2.23;;;;;;;36.80;nan;98819.00;5025738;23;21980;-81
2023/07/15 09:51:17;;;;;;;4.33;2.40;;;;;;;36.58;nan;98818.66;5009287;28;20562;-81
2023/07/15 09:53:50;;;;;;;2.50;2.30;;;;;;;36.31;nan;98828.97;5006443;28;20489;-81
2023/07/15 09:56:21;;;;;;;2.57;2.37;;;;;;;35.99;nan;98821.25;5004257;28;20566;-82
2023/07/15 09:58:50;;;;;;;4.47;3.40;;;;;;;35.71;nan;98824.72;4997305;28;20448;-82
2023/07/15 10:01:30;;;;;;;3.73;3.03;;;;;;;35.32;nan;98823.50;4986359;28;20697;-81
2023/07/15 10:04:05;;;;;;;6.43;2.67;;;;;;;34.95;nan;98827.41;4985460;28;20456;-81
2023/07/15 10:06:31;;;;;;;3.70;3.20;;;;;;;34.71;nan;98823.66;4991357;28;20447;-82
2023/07/15 10:08:58;;;;;;;2.57;2.17;;;;;;;34.53;nan;98823.06;4988162;28;20217;-82
2023/07/15 10:11:24;;;;;;;2.47;2.20;;;;;;;34.41;nan;98827.19;4986148;28;20460;-82
2023/07/15 10:13:50;;;;;;;3.50;2.63;;;;;;;34.26;nan;98819.81;4984247;28;20587;-82
2023/07/15 10:16:17;;;;;;;3.33;2.50;;;;;;;34.11;nan;98821.44;4984387;28;20573;-81
2023/07/15 10:18:46;;;;;;;4.37;3.13;;;;;;;34.00;nan;98821.66;4986851;28;20519;-81
2023/07/15 10:21:14;;;;;;;5.10;3.00;;;;;;;33.91;nan;98824.09;4988318;28;20490;-81
2023/07/15 10:23:40;;;;;;;3.07;2.77;;;;;;;33.87;nan;98831.19;4987310;28;20475;-81
2023/07/15 10:26:08;;;;;;;3.40;2.87;;;;;;;33.83;nan;98820.00;4990410;28;20839;-81
2023/07/15 10:28:39;;;;;;;2.70;2.50;;;;;;;33.82;nan;98828.44;4984372;28;20205;-81
2023/07/15 10:31:05;;;;;;;3.10;2.43;;;;;;;33.83;nan;98827.34;4988009;28;20451;-81
2023/07/15 10:33:30;;;;;;;6.23;2.70;;;;;;;33.80;nan;98814.28;4985844;28;20530;-81
2023/07/15 10:35:56;;;;;;;5.97;2.53;;;;;;;33.84;nan;98812.66;4982289;28;20462;-81
2023/07/15 10:38:24;;;;;;;26.90;5.10;;;;;;;33.98;nan;98812.97;4970678;28;20212;-81
2023/07/15 10:40:51;;;;;;;3.17;2.70;;;;;;;34.09;nan;98804.53;4991945;28;20682;-82
2023/07/15 10:43:21;;;;;;;3.40;2.50;;;;;;;34.22;nan;98796.94;4989382;28;20462;-82
2023/07/15 10:45:54;;;;;;;4.40;2.77;;;;;;;34.37;nan;98796.91;4992322;28;20757;-81
2023/07/15 10:48:21;;;;;;;3.20;2.90;;;;;;;34.43;nan;98790.38;4989848;28;20477;-81
2023/07/15 10:50:50;;;;;;;4.50;2.90;;;;;;;34.49;nan;98799.38;4984887;28;20749;-82
2023/07/15 10:53:34;;;;;;;5.80;2.80;;;;;;;34.65;nan;98789.25;4988517;28;20474;-81
2023/07/15 10:56:09;;;;;;;2.83;2.50;;;;;;;34.85;nan;98797.41;4985843;28;20466;-81
2023/07/15 10:58:36;;;;;;;2.57;2.37;;;;;;;35.06;nan;98781.00;4987951;28;20506;-81
2023/07/15 11:01:06;;;;;;;3.70;2.43;;;;;;;35.18;nan;98773.31;4989003;28;20492;-82
2023/07/15 11:03:41;;;;;;;5.40;3.17;;;;;;;35.30;nan;98779.28;4988688;28;20466;-82
2023/07/15 11:06:07;;;;;;;2.47;2.27;;;;;;;35.43;nan;98773.22;4988430;28;20525;-82
2023/07/15 11:08:33;;;;;;;3.10;2.63;;;;;;;35.50;nan;98767.44;4984568;28;20478;-83
2023/07/15 11:11:10;;;;;;;2.53;2.23;;;;;;;35.51;nan;98777.25;4987639;28;20199;-82
2023/07/15 11:13:37;;;;;;;4.90;2.70;;;;;;;35.56;nan;98770.94;4986476;28;20644;-81
2023/07/15 11:16:04;;;;;;;3.70;2.27;;;;;;;35.54;nan;98770.41;4984024;28;20538;-82
2023/07/15 11:18:30;;;;;;;3.00;2.70;;;;;;;35.56;nan;98765.47;4978979;28;20466;-82
2023/07/15 11:20:57;;;;;;;3.60;2.23;;;;;;;35.46;nan;98760.91;4982066;28;20727;-82
2023/07/15 11:23:23;;;;;;;13.23;4.30;;;;;;;35.39;nan;98753.03;4986051;28;20309;-82
2023/07/15 11:25:49;;;;;;;4.33;2.70;;;;;;;35.38;nan;98745.94;4983749;28;20473;-82
2023/07/15 11:28:17;;;;;;;4.17;2.60;;;;;;;35.45;nan;98751.06;4983562;28;20455;-81
2023/07/15 11:30:44;;;;;;;2.67;2.43;;;;;;;35.40;nan;98737.44;4984615;28;21017;-81
2023/07/15 11:33:11;;;;;;;5.97;2.80;;;;;;;35.26;nan;98736.44;4980103;28;20467;-82
2023/07/15 11:35:39;;;;;;;2.60;2.40;;;;;;;35.09;nan;98732.16;4972770;28;20825;-82
2023/07/15 11:38:13;;;;;;;3.03;2.73;;;;;;;35.02;nan;98737.03;4984079;28;20462;-82
2023/07/15 11:40:57;;;;;;;2.90;2.70;;;;;;;35.01;nan;98728.06;5050815;23;20497;-79
2023/07/15 11:43:28;;;;;;;4.00;3.60;;;;;;;35.07;nan;98720.69;4983346;28;20446;-78
2023/07/15 11:45:55;;;;;;;4.43;2.90;;;;;;;35.15;nan;98711.09;4996839;28;21137;-79
2023/07/15 11:48:30;;;;;;;4.97;2.23;;;;;;;35.19;nan;98704.00;4993560;28;20461;-80